sensor_id;sensor_type;location;lat;lon;timestamp;pressure;altitude;pressure_sealevel;temperature;humidity
59443;BME280;45247;47.466;19.004;2022-07-29T00:02:11;99871.50;;;23.07;86.52
59443;BME280;45247;47.466;19.004;2022-07-29T00:04:39;99857.53;;;23.11;86.35
59443;BME280;45247;47.466;19.004;2022-07-29T00:07:08;99861.06;;;23.12;86.83
59443;BME280;45247;47.466;19.004;2022-07-29T00:09:38;99852.34;;;23.10;86.41
59443;BME280;45247;47.466;19.004;2022-07-29T00:12:19;99864.59;;;23.12;86.63
59443;BME280;45247;47.466;19.004;2022-07-29T00:14:53;99862.06;;;23.11;86.64
59443;BME280;45247;47.466;19.004;2022-07-29T00:17:21;99858.72;;;23.09;87.41
59443;BME280;45247;47.466;19.004;2022-07-29T00:19:49;99860.75;;;23.07;87.85
59443;BME280;45247;47.466;19.004;2022-07-29T00:22:19;99866.81;;;23.09;88.13
59443;BME280;45247;47.466;19.004;2022-07-29T00:24:48;99864.78;;;23.11;87.79
59443;BME280;45247;47.466;19.004;2022-07-29T00:27:16;99870.50;;;22.99;88.49
59443;BME280;45247;47.466;19.004;2022-07-29T00:29:46;99865.31;;;22.98;88.52
59443;BME280;45247;47.466;19.004;2022-07-29T00:32:14;99870.50;;;22.99;88.72
59443;BME280;45247;47.466;19.004;2022-07-29T00:34:42;99867.16;;;22.97;88.43
59443;BME280;45247;47.466;19.004;2022-07-29T00:37:28;99874.41;;;22.97;89.13
59443;BME280;45247;47.466;19.004;2022-07-29T00:39:56;99874.91;;;22.92;89.31
59443;BME280;45247;47.466;19.004;2022-07-29T00:42:24;99877.06;;;22.89;89.97
59443;BME280;45247;47.466;19.004;2022-07-29T00:44:54;99871.88;;;22.87;89.72
59443;BME280;45247;47.466;19.004;2022-07-29T00:47:22;99863.44;;;22.82;90.33
59443;BME280;45247;47.466;19.004;2022-07-29T00:49:50;99863.81;;;22.79;90.88
59443;BME280;45247;47.466;19.004;2022-07-29T00:52:20;99865.50;;;22.80;91.22
59443;BME280;45247;47.466;19.004;2022-07-29T00:54:49;99865.16;;;22.83;90.07
59443;BME280;45247;47.466;19.004;2022-07-29T00:57:17;99870.19;;;22.78;91.07
59443;BME280;45247;47.466;19.004;2022-07-29T00:59:45;99864.34;;;22.74;91.51
59443;BME280;45247;47.466;19.004;2022-07-29T01:02:15;99865.31;;;22.73;91.63
59443;BME280;45247;47.466;19.004;2022-07-29T01:04:43;99859.47;;;22.70;91.83
59443;BME280;45247;47.466;19.004;2022-07-29T01:07:12;99860.81;;;22.66;92.35
59443;BME280;45247;47.466;19.004;2022-07-29T01:09:40;99856.78;;;22.62;92.84
59443;BME280;45247;47.466;19.004;2022-07-29T01:12:15;99863.84;;;22.63;92.32
59443;BME280;45247;47.466;19.004;2022-07-29T01:14:45;99863.13;;;22.69;91.95
59443;BME280;45247;47.466;19.004;2022-07-29T01:17:20;99855.75;;;22.63;92.61
59443;BME280;45247;47.466;19.004;2022-07-29T01:19:55;99863.50;;;22.66;92.58
59443;BME280;45247;47.466;19.004;2022-07-29T01:22:37;99865.19;;;22.67;92.56
59443;BME280;45247;47.466;19.004;2022-07-29T01:25:19;99858.47;;;22.63;92.83
59443;BME280;45247;47.466;19.004;2022-07-29T01:28:17;99859.13;;;22.57;93.51
59443;BME280;45247;47.466;19.004;2022-07-29T01:30:54;99859.81;;;22.59;94.10
59443;BME280;45247;47.466;19.004;2022-07-29T01:33:25;99849.38;;;22.56;93.25
59443;BME280;45247;47.466;19.004;2022-07-29T01:36:16;99856.09;;;22.60;93.33
59443;BME280;45247;47.466;19.004;2022-07-29T01:38:50;99846.88;;;22.54;93.80
59443;BME280;45247;47.466;19.004;2022-07-29T01:41:22;99849.38;;;22.56;94.35
59443;BME280;45247;47.466;19.004;2022-07-29T01:43:54;99853.09;;;22.55;94.82
59443;BME280;45247;47.466;19.004;2022-07-29T01:46:31;99856.09;;;22.52;95.29
59443;BME280;45247;47.466;19.004;2022-07-29T01:49:02;99854.94;;;22.46;95.77
59443;BME280;45247;47.466;19.004;2022-07-29T01:51:40;99856.78;;;22.45;95.63
59443;BME280;45247;47.466;19.004;2022-07-29T01:54:14;99844.69;;;22.41;96.44
59443;BME280;45247;47.466;19.004;2022-07-29T01:56:47;99841.31;;;22.39;96.26
59443;BME280;45247;47.466;19.004;2022-07-29T01:59:17;99857.44;;;22.39;96.81
59443;BME280;45247;47.466;19.004;2022-07-29T02:01:49;99849.88;;;22.35;97.12
59443;BME280;45247;47.466;19.004;2022-07-29T02:04:21;99849.06;;;22.34;96.98
59443;BME280;45247;47.466;19.004;2022-07-29T02:06:58;99846.03;;;22.29;97.98
59443;BME280;45247;47.466;19.004;2022-07-29T02:09:29;99846.88;;;22.30;97.95
59443;BME280;45247;47.466;19.004;2022-07-29T02:12:00;99851.41;;;22.29;98.18
59443;BME280;45247;47.466;19.004;2022-07-29T02:14:34;99843.03;;;22.24;98.29
59443;BME280;45247;47.466;19.004;2022-07-29T02:17:05;99851.75;;;22.26;98.70
59443;BME280;45247;47.466;19.004;2022-07-29T02:19:37;99845.38;;;22.19;99.65
59443;BME280;45247;47.466;19.004;2022-07-29T02:22:06;99845.03;;;22.22;99.49
59443;BME280;45247;47.466;19.004;2022-07-29T02:24:36;99843.34;;;22.29;99.32
59443;BME280;45247;47.466;19.004;2022-07-29T02:27:05;99842.31;;;22.22;99.08
59443;BME280;45247;47.466;19.004;2022-07-29T02:29:35;99831.25;;;22.17;99.57
59443;BME280;45247;47.466;19.004;2022-07-29T02:32:07;99839.00;;;22.20;99.14
59443;BME280;45247;47.466;19.004;2022-07-29T02:34:39;99837.81;;;22.14;99.61
59443;BME280;45247;47.466;19.004;2022-07-29T02:37:10;99833.56;;;22.12;99.89
59443;BME280;45247;47.466;19.004;2022-07-29T02:39:40;99834.63;;;22.19;99.75
59443;BME280;45247;47.466;19.004;2022-07-29T02:42:12;99833.56;;;22.12;99.99
59443;BME280;45247;47.466;19.004;2022-07-29T02:44:41;99833.44;;;22.13;100.00
59443;BME280;45247;47.466;19.004;2022-07-29T02:47:16;99831.91;;;22.11;100.00
59443;BME280;45247;47.466;19.004;2022-07-29T02:49:51;99836.13;;;22.13;99.63
59443;BME280;45247;47.466;19.004;2022-07-29T02:52:24;99836.44;;;22.02;100.00
59443;BME280;45247;47.466;19.004;2022-07-29T02:54:56;99837.25;;;21.94;100.00
59443;BME280;45247;47.466;19.004;2022-07-29T02:57:32;99835.91;;;21.90;100.00
59443;BME280;45247;47.466;19.004;2022-07-29T03:00:21;99835.09;;;21.98;100.00
59443;BME280;45247;47.466;19.004;2022-07-29T03:02:53;99835.91;;;21.90;100.00
59443;BME280;45247;47.466;19.004;2022-07-29T03:05:23;99834.88;;;21.83;100.00
59443;BME280;45247;47.466;19.004;2022-07-29T03:07:55;99830.84;;;21.87;100.00
59443;BME280;45247;47.466;19.004;2022-07-29T03:10:24;99836.59;;;21.84;100.00
59443;BME280;45247;47.466;19.004;2022-07-29T03:12:54;99834.38;;;21.88;100.00
59443;BME280;45247;47.466;19.004;2022-07-29T03:15:23;99838.59;;;21.90;100.00
59443;BME280;45247;47.466;19.004;2022-07-29T03:17:53;99839.59;;;21.89;100.00
59443;BME280;45247;47.466;19.004;2022-07-29T03:20:22;99834.22;;;21.89;100.00
59443;BME280;45247;47.466;19.004;2022-07-29T03:22:50;99836.22;;;21.87;100.00
59443;BME280;45247;47.466;19.004;2022-07-29T03:25:20;99845.28;;;21.86;100.00
59443;BME280;45247;47.466;19.004;2022-07-29T03:27:49;99837.25;;;21.86;100.00
59443;BME280;45247;47.466;19.004;2022-07-29T03:30:18;99835.38;;;21.87;100.00
59443;BME280;45247;47.466;19.004;2022-07-29T03:32:48;99843.63;;;21.85;100.00
59443;BME280;45247;47.466;19.004;2022-07-29T03:35:19;99843.63;;;21.85;100.00
59443;BME280;45247;47.466;19.004;2022-07-29T03:37:47;99837.56;;;21.91;100.00
59443;BME280;45247;47.466;19.004;2022-07-29T03:40:19;99838.94;;;21.95;100.00
59443;BME280;45247;47.466;19.004;2022-07-29T03:42:48;99842.78;;;22.01;100.00
59443;BME280;45247;47.466;19.004;2022-07-29T03:45:18;99834.25;;;22.06;100.00
59443;BME280;45247;47.466;19.004;2022-07-29T03:47:51;99839.16;;;22.18;98.97
59443;BME280;45247;47.466;19.004;2022-07-29T03:50:28;99839.31;;;22.25;98.24
59443;BME280;45247;47.466;19.004;2022-07-29T03:53:00;99840.66;;;22.37;97.37
59443;BME280;45247;47.466;19.004;2022-07-29T03:55:29;99831.25;;;22.49;96.01
59443;BME280;45247;47.466;19.004;2022-07-29T03:58:01;99822.16;;;22.50;95.33
59443;BME280;45247;47.466;19.004;2022-07-29T04:00:30;99845.16;;;22.69;93.93
59443;BME280;45247;47.466;19.004;2022-07-29T04:03:00;99851.34;;;22.78;93.34
59443;BME280;45247;47.466;19.004;2022-07-29T04:05:30;99849.66;;;23.02;91.76
59443;BME280;45247;47.466;19.004;2022-07-29T04:07:58;99844.84;;;23.28;89.41
59443;BME280;45247;47.466;19.004;2022-07-29T04:10:26;99842.75;;;23.46;87.76
59443;BME280;45247;47.466;19.004;2022-07-29T04:12:58;99835.09;;;23.66;86.26
59443;BME280;45247;47.466;19.004;2022-07-29T04:15:26;99840.34;;;23.60;85.73
59443;BME280;45247;47.466;19.004;2022-07-29T04:17:57;99852.34;;;23.80;84.29
59443;BME280;45247;47.466;19.004;2022-07-29T04:20:26;99848.81;;;23.80;84.56
59443;BME280;45247;47.466;19.004;2022-07-29T04:22:55;99846.63;;;23.83;84.05
59443;BME280;45247;47.466;19.004;2022-07-29T04:25:23;99847.34;;;24.23;81.93
59443;BME280;45247;47.466;19.004;2022-07-29T04:27:51;99833.22;;;24.44;79.25
59443;BME280;45247;47.466;19.004;2022-07-29T04:30:30;99844.22;;;25.10;75.07
59443;BME280;45247;47.466;19.004;2022-07-29T04:32:59;99842.75;;;25.58;72.40
59443;BME280;45247;47.466;19.004;2022-07-29T04:35:27;99848.41;;;26.42;68.93
59443;BME280;45247;47.466;19.004;2022-07-29T04:38:05;99838.59;;;26.63;66.22
59443;BME280;45247;47.466;19.004;2022-07-29T04:40:42;99838.47;;;27.06;63.54
59443;BME280;45247;47.466;19.004;2022-07-29T04:43:12;99843.78;;;26.92;63.94
59443;BME280;45247;47.466;19.004;2022-07-29T04:45:41;99846.56;;;26.71;65.44
59443;BME280;45247;47.466;19.004;2022-07-29T04:48:09;99835.56;;;27.07;63.83
59443;BME280;45247;47.466;19.004;2022-07-29T04:50:38;99830.53;;;27.39;62.15
59443;BME280;45247;47.466;19.004;2022-07-29T04:53:08;99837.22;;;28.31;58.92
59443;BME280;45247;47.466;19.004;2022-07-29T04:55:36;99837.91;;;28.66;57.23
59443;BME280;45247;47.466;19.004;2022-07-29T04:58:04;99837.25;;;29.62;53.43
59443;BME280;45247;47.466;19.004;2022-07-29T05:00:34;99839.69;;;30.40;49.42
59443;BME280;45247;47.466;19.004;2022-07-29T05:03:02;99834.31;;;31.02;47.41
59443;BME280;45247;47.466;19.004;2022-07-29T05:05:31;99835.97;;;31.21;46.09
59443;BME280;45247;47.466;19.004;2022-07-29T05:07:59;99837.41;;;32.21;43.87
59443;BME280;45247;47.466;19.004;2022-07-29T05:10:29;99834.91;;;33.48;41.48
59443;BME280;45247;47.466;19.004;2022-07-29T05:12:57;99839.16;;;32.92;40.88
59443;BME280;45247;47.466;19.004;2022-07-29T05:15:25;99835.91;;;32.83;41.64
59443;BME280;45247;47.466;19.004;2022-07-29T05:17:53;99837.97;;;33.00;41.09
59443;BME280;45247;47.466;19.004;2022-07-29T05:20:22;99837.09;;;32.87;40.61
59443;BME280;45247;47.466;19.004;2022-07-29T05:22:54;99843.78;;;33.15;40.45
59443;BME280;45247;47.466;19.004;2022-07-29T05:25:23;99836.53;;;33.09;40.79
59443;BME280;45247;47.466;19.004;2022-07-29T05:28:12;99839.13;;;32.57;41.17
59443;BME280;45247;47.466;19.004;2022-07-29T05:30:40;99834.31;;;33.34;39.70
59443;BME280;45247;47.466;19.004;2022-07-29T05:33:08;99831.75;;;33.16;40.22
59443;BME280;45247;47.466;19.004;2022-07-29T05:35:56;99829.06;;;33.56;39.52
59443;BME280;45247;47.466;19.004;2022-07-29T05:38:26;99837.25;;;32.69;40.53
59443;BME280;45247;47.466;19.004;2022-07-29T05:40:56;99840.44;;;34.22;39.41
59443;BME280;45247;47.466;19.004;2022-07-29T05:43:26;99840.72;;;34.09;37.55
59443;BME280;45247;47.466;19.004;2022-07-29T05:45:55;99841.84;;;32.80;40.35
59443;BME280;45247;47.466;19.004;2022-07-29T05:48:23;99845.53;;;33.33;38.70
59443;BME280;45247;47.466;19.004;2022-07-29T05:50:52;99840.13;;;33.78;38.59
59443;BME280;45247;47.466;19.004;2022-07-29T05:53:21;99855.38;;;33.34;39.17
59443;BME280;45247;47.466;19.004;2022-07-29T05:55:49;99849.00;;;32.81;39.88
59443;BME280;45247;47.466;19.004;2022-07-29T05:58:19;99853.25;;;33.76;38.12
59443;BME280;45247;47.466;19.004;2022-07-29T06:00:49;99853.34;;;33.41;39.19
59443;BME280;45247;47.466;19.004;2022-07-29T06:03:17;99861.81;;;32.04;41.13
59443;BME280;45247;47.466;19.004;2022-07-29T06:05:45;99859.09;;;31.37;43.18
59443;BME280;45247;47.466;19.004;2022-07-29T06:08:13;99859.63;;;31.46;43.40
59443;BME280;45247;47.466;19.004;2022-07-29T06:10:41;99860.06;;;32.33;42.36
59443;BME280;45247;47.466;19.004;2022-07-29T06:13:10;99863.25;;;32.18;42.67
59443;BME280;45247;47.466;19.004;2022-07-29T06:15:38;99861.22;;;32.67;41.67
59443;BME280;45247;47.466;19.004;2022-07-29T06:18:08;99854.22;;;32.71;41.65
59443;BME280;45247;47.466;19.004;2022-07-29T06:20:37;99861.44;;;32.00;42.64
59443;BME280;45247;47.466;19.004;2022-07-29T06:23:05;99866.75;;;31.77;43.87
59443;BME280;45247;47.466;19.004;2022-07-29T06:25:34;99861.38;;;32.19;43.62
59443;BME280;45247;47.466;19.004;2022-07-29T06:28:03;99862.94;;;32.26;43.33
59443;BME280;45247;47.466;19.004;2022-07-29T06:30:32;99868.03;;;31.92;42.93
59443;BME280;45247;47.466;19.004;2022-07-29T06:33:00;99879.53;;;30.84;46.59
59443;BME280;45247;47.466;19.004;2022-07-29T06:35:30;99876.13;;;31.32;46.51
59443;BME280;45247;47.466;19.004;2022-07-29T06:38:07;99872.78;;;31.67;45.57
59443;BME280;45247;47.466;19.004;2022-07-29T06:40:59;99883.25;;;32.00;43.33
59443;BME280;45247;47.466;19.004;2022-07-29T06:43:34;99876.31;;;31.86;45.57
59443;BME280;45247;47.466;19.004;2022-07-29T06:46:17;99883.03;;;31.35;46.08
59443;BME280;45247;47.466;19.004;2022-07-29T06:48:46;99882.81;;;32.15;44.39
59443;BME280;45247;47.466;19.004;2022-07-29T06:51:16;99880.28;;;32.02;44.49
59443;BME280;45247;47.466;19.004;2022-07-29T06:53:50;99869.13;;;31.91;44.80
59443;BME280;45247;47.466;19.004;2022-07-29T06:56:29;99874.31;;;32.23;43.84
59443;BME280;45247;47.466;19.004;2022-07-29T06:59:06;99874.16;;;31.58;45.15
59443;BME280;45247;47.466;19.004;2022-07-29T07:01:35;99873.13;;;31.89;44.54
59443;BME280;45247;47.466;19.004;2022-07-29T07:04:04;99862.69;;;31.67;45.06
59443;BME280;45247;47.466;19.004;2022-07-29T07:06:33;99879.47;;;31.53;45.11
59443;BME280;45247;47.466;19.004;2022-07-29T07:09:02;99868.63;;;31.46;46.28
59443;BME280;45247;47.466;19.004;2022-07-29T07:11:30;99874.47;;;31.50;45.21
59443;BME280;45247;47.466;19.004;2022-07-29T07:13:59;99875.16;;;31.45;45.58
59443;BME280;45247;47.466;19.004;2022-07-29T07:16:29;99866.31;;;31.25;46.33
59443;BME280;45247;47.466;19.004;2022-07-29T07:18:58;99873.94;;;31.41;46.12
59443;BME280;45247;47.466;19.004;2022-07-29T07:21:26;99861.59;;;31.57;45.95
59443;BME280;45247;47.466;19.004;2022-07-29T07:23:58;99861.38;;;31.88;45.24
59443;BME280;45247;47.466;19.004;2022-07-29T07:26:27;99861.16;;;31.90;45.17
59443;BME280;45247;47.466;19.004;2022-07-29T07:28:56;99864.56;;;32.15;44.82
59443;BME280;45247;47.466;19.004;2022-07-29T07:31:24;99863.00;;;32.08;44.83
59443;BME280;45247;47.466;19.004;2022-07-29T07:33:52;99865.19;;;31.87;44.98
59443;BME280;45247;47.466;19.004;2022-07-29T07:36:21;99862.47;;;31.87;44.38
59443;BME280;45247;47.466;19.004;2022-07-29T07:38:50;99865.69;;;31.29;45.87
59443;BME280;45247;47.466;19.004;2022-07-29T07:41:19;99864.16;;;31.33;47.30
59443;BME280;45247;47.466;19.004;2022-07-29T07:43:48;99861.50;;;31.45;46.39
59443;BME280;45247;47.466;19.004;2022-07-29T07:46:16;99868.88;;;31.45;46.05
59443;BME280;45247;47.466;19.004;2022-07-29T07:48:44;99863.84;;;31.41;46.01
59443;BME280;45247;47.466;19.004;2022-07-29T07:51:12;99866.88;;;31.70;45.63
59443;BME280;45247;47.466;19.004;2022-07-29T07:53:40;99860.28;;;31.59;46.62
59443;BME280;45247;47.466;19.004;2022-07-29T07:56:09;99863.38;;;31.26;46.52
59443;BME280;45247;47.466;19.004;2022-07-29T07:58:40;99858.84;;;31.38;46.76
59443;BME280;45247;47.466;19.004;2022-07-29T08:01:08;99860.75;;;31.56;46.65
59443;BME280;45247;47.466;19.004;2022-07-29T08:03:37;99853.16;;;31.58;46.24
59443;BME280;45247;47.466;19.004;2022-07-29T08:06:06;99851.53;;;31.87;45.69
59443;BME280;45247;47.466;19.004;2022-07-29T08:08:34;99858.72;;;31.82;46.25
59443;BME280;45247;47.466;19.004;2022-07-29T08:11:03;99858.34;;;31.48;45.68
59443;BME280;45247;47.466;19.004;2022-07-29T08:13:36;99855.16;;;31.33;46.21
59443;BME280;45247;47.466;19.004;2022-07-29T08:16:07;99855.38;;;31.50;47.33
59443;BME280;45247;47.466;19.004;2022-07-29T08:18:41;99849.06;;;31.98;46.67
59443;BME280;45247;47.466;19.004;2022-07-29T08:21:09;99844.94;;;32.07;45.29
59443;BME280;45247;47.466;19.004;2022-07-29T08:23:41;99851.03;;;32.09;45.10
59443;BME280;45247;47.466;19.004;2022-07-29T08:26:24;99847.78;;;32.00;46.17
59443;BME280;45247;47.466;19.004;2022-07-29T08:28:52;99845.19;;;32.05;45.49
59443;BME280;45247;47.466;19.004;2022-07-29T08:31:22;99858.28;;;31.85;45.40
59443;BME280;45247;47.466;19.004;2022-07-29T08:33:50;99847.88;;;31.45;45.76
59443;BME280;45247;47.466;19.004;2022-07-29T08:36:19;99851.53;;;31.69;46.44
59443;BME280;45247;47.466;19.004;2022-07-29T08:38:48;99849.88;;;31.68;46.56
59443;BME280;45247;47.466;19.004;2022-07-29T08:41:18;99851.00;;;31.79;46.62
59443;BME280;45247;47.466;19.004;2022-07-29T08:43:47;99845.19;;;32.05;45.97
59443;BME280;45247;47.466;19.004;2022-07-29T08:46:16;99839.25;;;31.97;44.78
59443;BME280;45247;47.466;19.004;2022-07-29T08:48:47;99838.78;;;32.00;45.52
59443;BME280;45247;47.466;19.004;2022-07-29T08:51:18;99839.44;;;32.25;45.37
59443;BME280;45247;47.466;19.004;2022-07-29T08:53:48;99841.31;;;32.25;45.00
59443;BME280;45247;47.466;19.004;2022-07-29T08:56:18;99834.84;;;32.49;44.83
59443;BME280;45247;47.466;19.004;2022-07-29T08:58:47;99831.34;;;32.19;44.47
59443;BME280;45247;47.466;19.004;2022-07-29T09:01:22;99835.88;;;31.95;44.69
59443;BME280;45247;47.466;19.004;2022-07-29T09:04:06;99838.41;;;31.96;45.27
59443;BME280;45247;47.466;19.004;2022-07-29T09:06:42;99833.97;;;31.83;45.44
59443;BME280;45247;47.466;19.004;2022-07-29T09:09:11;99835.22;;;31.99;45.57
59443;BME280;45247;47.466;19.004;2022-07-29T09:11:42;99835.22;;;31.99;44.27
59443;BME280;45247;47.466;19.004;2022-07-29T09:14:12;99831.19;;;32.02;43.07
59443;BME280;45247;47.466;19.004;2022-07-29T09:16:48;99831.84;;;31.85;43.48
59443;BME280;45247;47.466;19.004;2022-07-29T09:19:26;99828.06;;;31.86;42.83
59443;BME280;45247;47.466;19.004;2022-07-29T09:21:55;99823.09;;;31.95;42.77
59443;BME280;45247;47.466;19.004;2022-07-29T09:24:40;99817.94;;;32.17;42.99
59443;BME280;45247;47.466;19.004;2022-07-29T09:27:11;99826.63;;;32.26;41.86
59443;BME280;45247;47.466;19.004;2022-07-29T09:29:45;99812.00;;;32.32;42.10
59443;BME280;45247;47.466;19.004;2022-07-29T09:32:13;99812.28;;;32.54;41.18
59443;BME280;45247;47.466;19.004;2022-07-29T09:34:43;99815.63;;;32.56;40.67
59443;BME280;45247;47.466;19.004;2022-07-29T09:37:11;99807.81;;;32.95;40.96
59443;BME280;45247;47.466;19.004;2022-07-29T09:39:42;99808.81;;;32.35;41.02
59443;BME280;45247;47.466;19.004;2022-07-29T09:42:13;99807.47;;;32.14;40.48
59443;BME280;45247;47.466;19.004;2022-07-29T09:44:44;99809.78;;;32.40;41.17
59443;BME280;45247;47.466;19.004;2022-07-29T09:47:13;99801.25;;;32.60;40.85
59443;BME280;45247;47.466;19.004;2022-07-29T09:49:54;99795.56;;;32.74;39.92
59443;BME280;45247;47.466;19.004;2022-07-29T09:52:25;99799.00;;;32.69;40.88
59443;BME280;45247;47.466;19.004;2022-07-29T09:55:04;99794.72;;;32.50;39.20
59443;BME280;45247;47.466;19.004;2022-07-29T09:57:32;99794.22;;;32.29;39.82
59443;BME280;45247;47.466;19.004;2022-07-29T10:00:05;99790.53;;;32.35;39.29
59443;BME280;45247;47.466;19.004;2022-07-29T10:02:34;99792.84;;;32.38;38.91
59443;BME280;45247;47.466;19.004;2022-07-29T10:05:06;99789.72;;;32.58;38.53
59443;BME280;45247;47.466;19.004;2022-07-29T10:07:45;99786.06;;;32.53;38.97
59443;BME280;45247;47.466;19.004;2022-07-29T10:10:21;99786.97;;;33.05;38.79
59443;BME280;45247;47.466;19.004;2022-07-29T10:12:53;99792.22;;;33.35;38.45
59443;BME280;45247;47.466;19.004;2022-07-29T10:15:22;99785.88;;;33.18;36.53
59443;BME280;45247;47.466;19.004;2022-07-29T10:17:51;99785.69;;;33.48;37.80
59443;BME280;45247;47.466;19.004;2022-07-29T10:20:21;99777.53;;;33.65;36.62
59443;BME280;45247;47.466;19.004;2022-07-29T10:22:51;99780.84;;;33.67;35.48
59443;BME280;45247;47.466;19.004;2022-07-29T10:25:20;99775.44;;;33.55;36.36
59443;BME280;45247;47.466;19.004;2022-07-29T10:27:49;99776.53;;;33.43;35.99
59443;BME280;45247;47.466;19.004;2022-07-29T10:30:20;99775.88;;;33.64;35.63
59443;BME280;45247;47.466;19.004;2022-07-29T10:32:59;99774.47;;;33.78;35.69
59443;BME280;45247;47.466;19.004;2022-07-29T10:35:46;99772.25;;;33.75;35.53
59443;BME280;45247;47.466;19.004;2022-07-29T10:38:37;99766.50;;;33.60;35.97
59443;BME280;45247;47.466;19.004;2022-07-29T10:41:39;99764.88;;;33.93;35.74
59443;BME280;45247;47.466;19.004;2022-07-29T10:44:16;99758.53;;;34.04;35.02
59443;BME280;45247;47.466;19.004;2022-07-29T10:46:49;99750.06;;;34.39;34.93
59443;BME280;45247;47.466;19.004;2022-07-29T10:49:20;99764.75;;;34.16;34.63
59443;BME280;45247;47.466;19.004;2022-07-29T10:51:53;99761.34;;;34.09;34.34
59443;BME280;45247;47.466;19.004;2022-07-29T10:54:46;99764.88;;;33.93;35.50
59443;BME280;45247;47.466;19.004;2022-07-29T10:57:22;99751.94;;;33.31;35.50
59443;BME280;45247;47.466;19.004;2022-07-29T11:00:31;99753.72;;;33.37;35.98
59443;BME280;45247;47.466;19.004;2022-07-29T11:03:01;99754.47;;;33.32;36.04
59443;BME280;45247;47.466;19.004;2022-07-29T11:05:52;99757.69;;;34.03;35.12
59443;BME280;45247;47.466;19.004;2022-07-29T11:08:24;99747.63;;;34.43;34.33
59443;BME280;45247;47.466;19.004;2022-07-29T11:14:03;99727.03;;;35.18;32.48
59443;BME280;45247;47.466;19.004;2022-07-29T11:16:58;99734.38;;;35.39;33.14
59443;BME280;45247;47.466;19.004;2022-07-29T11:19:27;99733.38;;;35.72;32.03
59443;BME280;45247;47.466;19.004;2022-07-29T11:21:57;99730.53;;;35.62;32.66
59443;BME280;45247;47.466;19.004;2022-07-29T11:24:28;99729.22;;;35.43;31.85
59443;BME280;45247;47.466;19.004;2022-07-29T11:27:12;99720.94;;;35.37;31.59
59443;BME280;45247;47.466;19.004;2022-07-29T11:29:50;99719.25;;;34.87;32.13
59443;BME280;45247;47.466;19.004;2022-07-29T11:32:20;99705.03;;;34.91;32.09
59443;BME280;45247;47.466;19.004;2022-07-29T11:35:13;99709.00;;;35.00;33.42
59443;BME280;45247;47.466;19.004;2022-07-29T11:37:44;99708.19;;;35.26;32.36
59443;BME280;45247;47.466;19.004;2022-07-29T11:40:22;99706.06;;;35.55;32.31
59443;BME280;45247;47.466;19.004;2022-07-29T11:42:51;99694.34;;;35.65;32.17
59443;BME280;45247;47.466;19.004;2022-07-29T11:45:25;99697.00;;;35.87;31.85
59443;BME280;45247;47.466;19.004;2022-07-29T11:48:18;99705.78;;;35.30;30.36
59443;BME280;45247;47.466;19.004;2022-07-29T11:50:58;99706.31;;;34.61;32.41
59443;BME280;45247;47.466;19.004;2022-07-29T11:53:26;99700.50;;;34.41;33.23
59443;BME280;45247;47.466;19.004;2022-07-29T11:56:21;99697.44;;;34.54;33.53
59443;BME280;45247;47.466;19.004;2022-07-29T11:59:02;99691.63;;;35.16;32.48
59443;BME280;45247;47.466;19.004;2022-07-29T12:01:34;99680.97;;;35.47;31.85
59443;BME280;45247;47.466;19.004;2022-07-29T12:04:03;99690.88;;;35.80;31.27
59443;BME280;45247;47.466;19.004;2022-07-29T12:06:32;99693.75;;;35.63;31.98
59443;BME280;45247;47.466;19.004;2022-07-29T12:09:06;99683.38;;;35.65;31.19
59443;BME280;45247;47.466;19.004;2022-07-29T12:11:41;99682.84;;;35.68;31.09
59443;BME280;45247;47.466;19.004;2022-07-29T12:14:28;99683.72;;;35.47;30.95
59443;BME280;45247;47.466;19.004;2022-07-29T12:16:56;99679.00;;;34.93;31.73
59443;BME280;45247;47.466;19.004;2022-07-29T12:19:25;99684.50;;;34.71;31.77
59443;BME280;45247;47.466;19.004;2022-07-29T12:21:56;99688.78;;;34.62;32.42
59443;BME280;45247;47.466;19.004;2022-07-29T12:24:42;99673.66;;;35.25;31.89
59443;BME280;45247;47.466;19.004;2022-07-29T12:27:17;99667.41;;;35.62;31.44
59443;BME280;45247;47.466;19.004;2022-07-29T12:29:56;99672.13;;;35.40;30.80
59443;BME280;45247;47.466;19.004;2022-07-29T12:32:31;99672.66;;;34.87;31.44
59443;BME280;45247;47.466;19.004;2022-07-29T12:35:02;99661.00;;;34.97;30.30
59443;BME280;45247;47.466;19.004;2022-07-29T12:37:33;99652.78;;;34.75;31.47
59443;BME280;45247;47.466;19.004;2022-07-29T12:40:08;99656.53;;;34.30;32.48
59443;BME280;45247;47.466;19.004;2022-07-29T12:42:38;99646.09;;;34.27;31.83
59443;BME280;45247;47.466;19.004;2022-07-29T12:45:07;99645.97;;;34.00;31.60
59443;BME280;45247;47.466;19.004;2022-07-29T12:47:51;99628.22;;;33.86;32.81
59443;BME280;45247;47.466;19.004;2022-07-29T12:50:19;99648.88;;;33.77;33.61
59443;BME280;45247;47.466;19.004;2022-07-29T12:52:52;99639.66;;;34.17;33.52
59443;BME280;45247;47.466;19.004;2022-07-29T12:55:38;99631.53;;;34.44;33.71
59443;BME280;45247;47.466;19.004;2022-07-29T12:58:07;99632.00;;;34.79;32.46
59443;BME280;45247;47.466;19.004;2022-07-29T13:00:36;99632.03;;;34.41;33.19
59443;BME280;45247;47.466;19.004;2022-07-29T13:03:04;99634.28;;;33.71;33.52
59443;BME280;45247;47.466;19.004;2022-07-29T13:05:40;99635.19;;;33.94;33.86
59443;BME280;45247;47.466;19.004;2022-07-29T13:08:16;99632.38;;;33.88;34.31
59443;BME280;45247;47.466;19.004;2022-07-29T13:10:47;99635.28;;;33.65;33.99
59443;BME280;45247;47.466;19.004;2022-07-29T13:13:17;99626.03;;;34.22;34.20
59443;BME280;45247;47.466;19.004;2022-07-29T13:15:45;99630.09;;;34.19;33.23
59443;BME280;45247;47.466;19.004;2022-07-29T13:18:27;99624.69;;;34.24;32.75
59443;BME280;45247;47.466;19.004;2022-07-29T13:20:56;99617.59;;;34.06;32.75